Time;durP1;ratioP1;P1;durP2;ratioP2;P2;SDS_P1;SDS_P2;PMS_P1;PMS_P2;Temp;Humidity;BMP_temperature;BMP_pressure;BME280_temperature;BME280_humidity;BME280_pressure;Samples;Min_cycle;Max_cycle;Signal;HPM_P1;HPM_P2
2023/01/23 00:02:10;;;;;;;18.20;10.83;;;;;;;-2.20;100.00;97411.66;5075947;28;20436;-76
2023/01/23 00:04:36;;;;;;;15.10;10.20;;;;;;;-2.01;100.00;97445.31;5089864;28;20431;-75
2023/01/23 00:07:03;;;;;;;15.93;10.70;;;;;;;-2.05;100.00;97442.38;5076146;28;20443;-76
2023/01/23 00:09:30;;;;;;;17.00;10.60;;;;;;;-1.97;100.00;97452.44;5077757;28;20428;-75
2023/01/23 00:11:57;;;;;;;17.83;11.00;;;;;;;-2.14;100.00;97428.94;5090185;28;20805;-75
2023/01/23 00:14:24;;;;;;;17.47;12.73;;;;;;;-1.90;100.00;97462.72;5059247;28;20467;-75
2023/01/23 00:16:51;;;;;;;17.10;12.20;;;;;;;-2.00;100.00;97458.06;5055851;28;20488;-76
2023/01/23 00:19:18;;;;;;;14.73;11.27;;;;;;;-1.92;100.00;97470.72;5070105;28;20436;-76
2023/01/23 00:21:45;;;;;;;18.10;11.83;;;;;;;-2.09;100.00;97433.47;5075916;28;20463;-75
2023/01/23 00:24:14;;;;;;;16.20;10.80;;;;;;;-2.14;100.00;97435.91;5075682;28;20507;-74
2023/01/23 00:26:41;;;;;;;17.60;12.40;;;;;;;-1.90;100.00;97476.47;5084233;28;21058;-74
2023/01/23 00:29:08;;;;;;;19.93;12.33;;;;;;;-2.11;100.00;97440.66;5065775;28;20482;-74
2023/01/23 00:31:36;;;;;;;19.70;12.17;;;;;;;-1.89;100.00;97472.84;5062253;28;20544;-74
2023/01/23 00:34:07;;;;;;;19.50;11.70;;;;;;;-2.08;100.00;97441.00;5084263;28;20482;-73
2023/01/23 00:36:37;;;;;;;18.10;11.30;;;;;;;-1.89;100.00;97472.06;5074746;28;20467;-73
2023/01/23 00:39:07;;;;;;;18.30;12.30;;;;;;;-1.84;100.00;97480.00;5066907;28;20448;-73
2023/01/23 00:41:34;;;;;;;18.10;12.17;;;;;;;-1.83;100.00;97479.00;5069811;28;20435;-74
2023/01/23 00:44:03;;;;;;;15.17;11.83;;;;;;;-1.99;100.00;97446.69;5085255;28;20422;-76
2023/01/23 00:46:29;;;;;;;15.60;11.73;;;;;;;-2.12;100.00;97426.13;5076797;28;20815;-75
2023/01/23 00:48:56;;;;;;;20.53;13.83;;;;;;;-1.80;100.00;97481.94;5079241;28;20427;-75
2023/01/23 00:51:24;;;;;;;18.23;11.67;;;;;;;-2.08;100.00;97445.41;5086924;28;20440;-75
2023/01/23 00:53:51;;;;;;;21.50;12.70;;;;;;;-2.17;100.00;97441.50;5068699;28;20540;-75
2023/01/23 00:56:18;;;;;;;22.07;14.50;;;;;;;-2.04;100.00;97464.69;5064056;28;20873;-75
2023/01/23 00:58:45;;;;;;;18.57;13.30;;;;;;;-1.93;100.00;97478.72;5087317;28;20425;-75
2023/01/23 01:01:13;;;;;;;18.00;12.33;;;;;;;-1.87;100.00;97483.00;5084609;28;20431;-75
2023/01/23 01:03:41;;;;;;;22.13;13.90;;;;;;;-1.95;100.00;97467.78;5062355;28;20435;-75
2023/01/23 01:06:09;;;;;;;21.93;13.37;;;;;;;-1.86;100.00;97488.00;5092697;28;21022;-75
2023/01/23 01:08:36;;;;;;;21.87;11.47;;;;;;;-2.13;100.00;97448.66;5079192;28;21164;-75
2023/01/23 01:11:03;;;;;;;17.27;12.10;;;;;;;-1.99;100.00;97464.03;5079164;28;20432;-73
2023/01/23 01:13:30;;;;;;;22.00;14.40;;;;;;;-2.12;100.00;97449.44;5058452;28;20451;-73
2023/01/23 01:16:00;;;;;;;21.07;13.60;;;;;;;-1.93;100.00;97476.91;5042081;28;20469;-73
2023/01/23 01:18:28;;;;;;;21.07;13.80;;;;;;;-1.91;100.00;97482.66;5071944;28;20436;-72
2023/01/23 01:20:56;;;;;;;18.30;13.37;;;;;;;-1.99;100.00;97466.63;5085497;28;20442;-75
2023/01/23 01:23:23;;;;;;;18.37;13.00;;;;;;;-2.09;100.00;97444.63;5079392;28;20446;-75
2023/01/23 01:25:50;;;;;;;18.70;13.10;;;;;;;-1.92;100.00;97486.25;5078244;28;20471;-75
2023/01/23 01:28:17;;;;;;;21.20;13.90;;;;;;;-1.90;100.00;97481.66;5085451;28;20424;-75
2023/01/23 01:30:46;;;;;;;22.93;12.87;;;;;;;-2.18;100.00;97442.53;5083883;28;20451;-75
2023/01/23 01:33:13;;;;;;;19.00;12.37;;;;;;;-2.15;100.00;97457.63;5068304;28;20474;-75
2023/01/23 01:35:41;;;;;;;18.47;11.93;;;;;;;-1.92;100.00;97480.28;5061534;28;20460;-75
2023/01/23 01:38:08;;;;;;;21.67;13.10;;;;;;;-2.08;100.00;97466.13;5083198;28;20432;-75
2023/01/23 01:40:36;;;;;;;21.23;13.30;;;;;;;-2.15;100.00;97470.56;5056291;28;20451;-75
2023/01/23 01:43:07;;;;;;;17.20;12.07;;;;;;;-2.07;100.00;97483.25;5060560;28;20444;-76
2023/01/23 01:46:02;;;;;;;19.17;13.10;;;;;;;-1.97;100.00;97499.09;5054764;28;20494;-75
2023/01/23 01:48:44;;;;;;;18.57;12.30;;;;;;;-1.92;100.00;97499.22;5058693;28;20476;-75
2023/01/23 01:51:33;;;;;;;20.70;11.90;;;;;;;-2.04;100.00;97480.22;5081639;28;20429;-75
2023/01/23 01:54:14;;;;;;;17.87;11.97;;;;;;;-1.87;100.00;97509.75;5084732;28;20471;-75
2023/01/23 01:57:07;;;;;;;15.87;11.40;;;;;;;-1.84;100.00;97524.84;5081926;28;20447;-75
2023/01/23 01:59:45;;;;;;;20.60;12.87;;;;;;;-1.81;100.00;97523.63;5054106;28;20923;-76
2023/01/23 02:02:26;;;;;;;18.23;13.70;;;;;;;-1.81;100.00;97532.19;5066570;28;20518;-75
2023/01/23 02:05:10;;;;;;;19.13;12.53;;;;;;;-2.12;100.00;97486.50;5077622;28;20432;-75
2023/01/23 02:08:02;;;;;;;18.73;12.20;;;;;;;-1.79;100.00;97542.34;5079789;28;20458;-75
2023/01/23 02:10:31;;;;;;;19.50;14.10;;;;;;;-1.85;100.00;97544.00;5067226;28;20489;-75
2023/01/23 02:13:21;;;;;;;17.73;11.30;;;;;;;-1.97;100.00;97532.78;5087439;28;20474;-75
2023/01/23 02:15:50;;;;;;;18.03;13.40;;;;;;;-2.09;100.00;97519.75;5062554;28;20464;-75
2023/01/23 02:18:17;;;;;;;23.77;14.17;;;;;;;-2.15;100.00;97510.22;5086155;28;20428;-75
2023/01/23 02:20:46;;;;;;;18.20;10.60;;;;;;;-2.13;100.00;97516.00;5084792;28;20871;-76
2023/01/23 02:23:33;;;;;;;18.10;12.23;;;;;;;-1.91;100.00;97539.66;5089194;28;20485;-77
2023/01/23 02:26:04;;;;;;;18.60;12.27;;;;;;;-1.87;100.00;97538.25;5103474;28;20455;-77
2023/01/23 02:28:39;;;;;;;16.93;13.20;;;;;;;-1.88;100.00;97526.28;5107877;28;20409;-76
2023/01/23 02:31:06;;;;;;;23.93;14.10;;;;;;;-2.08;100.00;97513.56;5093014;28;20495;-75
2023/01/23 02:33:33;;;;;;;19.77;12.03;;;;;;;-1.90;100.00;97530.88;5062199;28;20432;-75
2023/01/23 02:36:02;;;;;;;17.17;10.67;;;;;;;-2.15;100.00;97493.91;5084174;28;20472;-75
2023/01/23 02:38:35;;;;;;;20.73;11.83;;;;;;;-2.13;100.00;97499.69;5082881;28;20492;-75
2023/01/23 02:41:07;;;;;;;21.23;12.60;;;;;;;-1.95;100.00;97528.16;5065043;28;20495;-76
2023/01/23 02:43:36;;;;;;;15.93;11.57;;;;;;;-2.25;100.00;97486.66;5063388;28;20437;-75
2023/01/23 02:46:08;;;;;;;19.03;12.17;;;;;;;-2.08;100.00;97505.00;5078106;28;20487;-75
2023/01/23 02:48:43;;;;;;;15.40;9.90;;;;;;;-1.97;100.00;97524.22;5061730;28;20436;-75
2023/01/23 02:51:10;;;;;;;17.70;11.23;;;;;;;-1.99;100.00;97518.47;5063291;28;20435;-75
2023/01/23 02:53:38;;;;;;;13.60;10.20;;;;;;;-2.21;100.00;97474.84;5084001;28;20945;-76
2023/01/23 02:56:05;;;;;;;14.10;10.77;;;;;;;-2.20;100.00;97498.94;5069661;28;20470;-75
2023/01/23 03:01:18;;;;;;;16.77;11.53;;;;;;;-2.29;100.00;97495.03;5082604;28;20435;-73
2023/01/23 03:03:44;;;;;;;16.60;11.30;;;;;;;-2.19;100.00;97511.66;5050175;28;20441;-73
2023/01/23 03:06:11;;;;;;;17.13;10.67;;;;;;;-2.41;100.00;97445.75;5083111;28;20540;-73
2023/01/23 03:08:48;;;;;;;17.13;11.53;;;;;;;-2.10;100.00;97500.03;5046454;28;20435;-73
2023/01/23 03:11:17;;;;;;;19.47;10.90;;;;;;;-2.08;100.00;97505.78;5076641;28;20459;-73
2023/01/23 03:13:45;;;;;;;18.80;10.20;;;;;;;-2.22;100.00;97491.38;5081371;28;20440;-73
2023/01/23 03:16:12;;;;;;;15.83;9.90;;;;;;;-2.03;100.00;97510.31;5083143;28;20463;-75
2023/01/23 03:18:39;;;;;;;15.10;9.93;;;;;;;-2.14;100.00;97496.28;5078941;28;20480;-75
2023/01/23 03:21:20;;;;;;;16.73;10.83;;;;;;;-1.99;100.00;97521.03;5071792;28;20440;-75
2023/01/23 03:23:47;;;;;;;14.37;10.53;;;;;;;-2.14;100.00;97496.28;5053188;28;20625;-75
2023/01/23 03:26:14;;;;;;;17.20;10.90;;;;;;;-1.95;100.00;97527.38;5066305;28;20505;-75
2023/01/23 03:31:27;;;;;;;17.10;10.47;;;;;;;-2.02;100.00;97514.47;5077421;28;20865;-75
2023/01/23 03:33:53;;;;;;;17.10;11.37;;;;;;;-2.21;100.00;97480.00;5076481;28;20424;-75
2023/01/23 03:36:21;;;;;;;18.90;12.00;;;;;;;-1.97;100.00;97525.00;5082031;28;20550;-75
2023/01/23 03:41:35;;;;;;;19.87;12.40;;;;;;;-2.08;100.00;97520.53;5081327;28;20422;-76
2023/01/23 03:44:02;;;;;;;19.50;12.03;;;;;;;-2.29;100.00;97505.41;5072340;28;20436;-76
2023/01/23 03:46:30;;;;;;;19.30;12.07;;;;;;;-2.18;100.00;97517.66;5080792;28;20451;-75
2023/01/23 03:48:56;;;;;;;18.33;11.30;;;;;;;-2.28;100.00;97486.25;5036230;28;20929;-75
2023/01/23 03:51:23;;;;;;;17.93;12.93;;;;;;;-2.21;100.00;97503.31;5073071;28;20936;-76
2023/01/23 03:53:50;;;;;;;17.30;11.33;;;;;;;-1.94;100.00;97534.13;5071181;28;20813;-75
2023/01/23 03:56:18;;;;;;;17.50;11.37;;;;;;;-1.96;100.00;97528.38;5081285;28;20578;-75
2023/01/23 03:58:44;;;;;;;14.10;11.00;;;;;;;-2.05;100.00;97527.06;5050349;28;21003;-75
2023/01/23 04:01:12;;;;;;;13.40;9.40;;;;;;;-2.07;100.00;97506.56;5074111;28;20811;-75
2023/01/23 04:03:41;;;;;;;15.97;11.80;;;;;;;-2.33;100.00;97491.31;5056138;28;20448;-75
2023/01/23 04:06:07;;;;;;;15.67;10.67;;;;;;;-2.31;100.00;97490.06;5069133;28;20467;-75
2023/01/23 04:08:35;;;;;;;13.83;10.43;;;;;;;-2.20;100.00;97497.13;5082945;28;20920;-75
2023/01/23 04:11:07;;;;;;;14.50;9.60;;;;;;;-2.21;100.00;97489.59;5082308;28;20535;-75
2023/01/23 04:13:34;;;;;;;14.30;10.47;;;;;;;-2.19;100.00;97484.97;5063392;28;20824;-76
2023/01/23 04:16:01;;;;;;;16.10;9.77;;;;;;;-2.11;100.00;97508.00;5075711;28;21305;-73
2023/01/23 04:18:28;;;;;;;16.03;10.07;;;;;;;-2.16;100.00;97506.06;5065457;28;21021;-73
2023/01/23 04:20:55;;;;;;;14.77;10.20;;;;;;;-1.98;100.00;97517.44;5085284;28;20774;-73
2023/01/23 04:23:23;;;;;;;14.20;10.63;;;;;;;-2.18;100.00;97508.06;5060171;28;20936;-73
2023/01/23 04:25:50;;;;;;;18.40;12.50;;;;;;;-2.04;100.00;97533.84;5086328;28;20496;-73
2023/01/23 04:28:18;;;;;;;18.63;12.70;;;;;;;-2.22;100.00;97501.75;5080651;28;20450;-73
2023/01/23 04:30:52;;;;;;;14.73;9.47;;;;;;;-2.23;100.00;97483.84;5079266;28;20446;-72
2023/01/23 04:33:28;;;;;;;17.07;10.10;;;;;;;-2.59;100.00;97438.00;5082588;28;20542;-73
2023/01/23 04:36:01;;;;;;;17.80;9.67;;;;;;;-2.07;100.00;97514.34;5085818;28;20472;-73
2023/01/23 04:38:30;;;;;;;19.80;11.33;;;;;;;-1.99;100.00;97536.59;5084556;28;20439;-73
2023/01/23 04:41:06;;;;;;;16.70;10.67;;;;;;;-2.07;100.00;97535.06;5066014;28;20541;-73
2023/01/23 04:43:36;;;;;;;19.67;11.07;;;;;;;-1.93;100.00;97535.72;5078357;28;20439;-73
2023/01/23 04:46:07;;;;;;;15.57;11.20;;;;;;;-2.23;100.00;97499.38;5064746;28;20548;-75
2023/01/23 04:49:00;;;;;;;21.03;11.73;;;;;;;-2.19;100.00;97495.34;5078160;28;20437;-73
2023/01/23 04:51:27;;;;;;;17.53;12.80;;;;;;;-1.94;100.00;97534.94;5081449;28;20439;-73
2023/01/23 04:53:54;;;;;;;19.10;12.13;;;;;;;-1.93;100.00;97546.09;5070168;28;20434;-73
2023/01/23 04:56:21;;;;;;;15.73;10.80;;;;;;;-2.21;100.00;97502.53;5084791;28;20528;-73
2023/01/23 04:58:48;;;;;;;18.43;11.30;;;;;;;-2.00;100.00;97532.38;5056116;28;20493;-73
2023/01/23 05:01:22;;;;;;;14.77;9.80;;;;;;;-1.95;100.00;97555.88;5085745;28;20530;-73
2023/01/23 05:03:52;;;;;;;20.67;11.23;;;;;;;-1.93;100.00;97557.25;5059692;28;20452;-73
2023/01/23 05:06:22;;;;;;;18.50;11.60;;;;;;;-2.16;100.00;97528.56;5072977;28;20513;-73
2023/01/23 05:08:50;;;;;;;13.90;10.20;;;;;;;-2.40;100.00;97481.03;5083501;28;20448;-73
2023/01/23 05:11:23;;;;;;;15.20;11.13;;;;;;;-2.22;100.00;97522.47;5058485;28;20456;-73
2023/01/23 05:13:50;;;;;;;18.07;11.20;;;;;;;-2.21;100.00;97523.25;5081866;28;20453;-73
2023/01/23 05:16:19;;;;;;;15.37;10.33;;;;;;;-2.10;100.00;97533.69;5074853;28;20483;-73
2023/01/23 05:19:09;;;;;;;14.60;10.33;;;;;;;-2.10;100.00;97548.47;5086637;28;20935;-73
2023/01/23 05:21:35;;;;;;;16.73;11.50;;;;;;;-2.26;100.00;97517.94;5085513;28;20486;-73
2023/01/23 05:24:02;;;;;;;17.93;11.70;;;;;;;-2.28;100.00;97514.75;5071719;28;20816;-73
2023/01/23 05:26:29;;;;;;;19.87;12.13;;;;;;;-2.03;100.00;97561.31;5078415;28;20451;-73
2023/01/23 05:28:56;;;;;;;17.90;11.80;;;;;;;-2.24;100.00;97532.25;5079725;28;20515;-73
2023/01/23 05:31:24;;;;;;;16.50;12.67;;;;;;;-2.34;100.00;97507.84;5084241;28;20944;-73
2023/01/23 05:34:10;;;;;;;17.90;10.60;;;;;;;-2.17;100.00;97525.19;5086498;28;20445;-73
2023/01/23 05:36:38;;;;;;;18.87;11.70;;;;;;;-2.11;100.00;97557.25;5081618;28;20513;-73
2023/01/23 05:39:06;;;;;;;13.87;9.90;;;;;;;-2.24;100.00;97532.25;5078384;28;20431;-73
2023/01/23 05:41:32;;;;;;;14.53;10.20;;;;;;;-2.06;100.00;97569.53;5061318;28;20528;-73
2023/01/23 05:44:22;;;;;;;15.17;10.57;;;;;;;-2.16;100.00;97552.69;5082061;28;20865;-73
2023/01/23 05:47:01;;;;;;;16.73;11.30;;;;;;;-2.18;100.00;97553.91;5070397;28;20491;-73
2023/01/23 05:49:29;;;;;;;14.17;9.83;;;;;;;-2.35;100.00;97547.69;5064104;28;21012;-73
2023/01/23 05:51:56;;;;;;;30.03;23.00;;;;;;;-2.68;100.00;97495.19;5068950;28;20457;-73
2023/01/23 05:54:24;;;;;;;30.00;22.73;;;;;;;-2.11;100.00;97583.16;5061210;28;20495;-74
2023/01/23 05:56:51;;;;;;;21.50;14.27;;;;;;;-2.31;100.00;97560.00;5084492;28;20470;-73
2023/01/23 05:59:37;;;;;;;19.20;11.53;;;;;;;-2.10;100.00;97592.50;5084429;28;20422;-73
2023/01/23 06:02:24;;;;;;;14.63;10.53;;;;;;;-2.09;100.00;97594.88;5066715;28;20770;-73
2023/01/23 06:05:16;;;;;;;13.90;10.90;;;;;;;-2.29;100.00;97570.94;5055815;28;20518;-73
2023/01/23 06:07:59;;;;;;;12.77;9.23;;;;;;;-2.11;100.00;97596.88;5076317;28;20527;-73
2023/01/23 06:10:25;;;;;;;12.93;10.10;;;;;;;-2.14;100.00;97593.91;5062166;28;20930;-73
2023/01/23 06:12:52;;;;;;;13.40;9.53;;;;;;;-2.23;100.00;97571.91;5059151;28;20507;-73
2023/01/23 06:15:19;;;;;;;17.20;12.13;;;;;;;-1.99;100.00;97627.28;5073810;28;20465;-73
2023/01/23 06:17:45;;;;;;;13.17;9.43;;;;;;;-1.98;100.00;97626.28;5079664;28;20453;-73
2023/01/23 06:20:13;;;;;;;17.40;10.53;;;;;;;-2.16;100.00;97616.66;5079572;28;20802;-73
2023/01/23 06:22:42;;;;;;;13.80;10.43;;;;;;;-2.24;100.00;97607.38;5077327;28;20940;-73
2023/01/23 06:25:11;;;;;;;15.93;10.93;;;;;;;-2.23;100.00;97600.38;5081402;28;20451;-73
2023/01/23 06:27:38;;;;;;;15.17;9.77;;;;;;;-1.99;100.00;97635.06;5067426;28;20456;-73
2023/01/23 06:30:07;;;;;;;11.50;8.87;;;;;;;-2.30;100.00;97602.22;5064250;28;20443;-73
2023/01/23 06:32:43;;;;;;;12.10;9.57;;;;;;;-2.27;100.00;97614.75;5061629;28;20856;-73
2023/01/23 06:35:11;;;;;;;15.47;10.70;;;;;;;-2.16;100.00;97645.13;5078968;28;20439;-73
2023/01/23 06:37:40;;;;;;;16.23;10.77;;;;;;;-2.39;100.00;97619.84;5078692;28;20461;-73
2023/01/23 06:40:12;;;;;;;16.67;9.93;;;;;;;-2.63;100.00;97607.69;5062798;28;20541;-73
2023/01/23 06:42:43;;;;;;;14.70;9.60;;;;;;;-2.34;100.00;97655.47;5056832;28;20467;-73
2023/01/23 06:45:10;;;;;;;15.97;10.93;;;;;;;-2.38;100.00;97662.84;5070296;28;21011;-73
2023/01/23 06:47:37;;;;;;;12.47;9.10;;;;;;;-2.36;100.00;97666.03;5082788;28;20456;-73
2023/01/23 06:50:04;;;;;;;15.57;10.60;;;;;;;-2.73;100.00;97621.06;5082867;28;20903;-73
2023/01/23 06:52:35;;;;;;;17.10;11.80;;;;;;;-2.64;100.00;97640.53;5074278;28;20504;-73
2023/01/23 06:55:05;;;;;;;19.83;11.27;;;;;;;-2.59;100.00;97658.81;5081378;28;20439;-72
2023/01/23 06:57:33;;;;;;;13.20;10.00;;;;;;;-2.51;100.00;97673.31;5058677;28;20492;-73
2023/01/23 07:00:01;;;;;;;13.87;9.60;;;;;;;-2.73;100.00;97654.72;5072178;28;20531;-72
2023/01/23 07:02:29;;;;;;;15.60;10.53;;;;;;;-2.74;100.00;97650.53;5080563;28;20440;-72
2023/01/23 07:04:56;;;;;;;16.00;10.73;;;;;;;-2.53;100.00;97681.28;5072279;28;20822;-72
2023/01/23 07:07:22;;;;;;;13.93;9.77;;;;;;;-2.62;100.00;97674.75;5063545;28;20551;-72
2023/01/23 07:09:49;;;;;;;15.77;10.23;;;;;;;-2.83;100.00;97631.88;5052995;28;20763;-72
2023/01/23 07:12:22;;;;;;;15.87;9.70;;;;;;;-2.80;100.00;97672.09;5080518;28;20440;-73
2023/01/23 07:14:49;;;;;;;15.60;10.83;;;;;;;-2.73;100.00;97660.69;5059695;28;20439;-72
2023/01/23 07:17:21;;;;;;;14.27;10.20;;;;;;;-2.72;100.00;97664.06;5078767;28;20542;-73
2023/01/23 07:19:49;;;;;;;11.00;8.47;;;;;;;-2.61;100.00;97689.28;5083390;28;20540;-72
2023/01/23 07:22:19;;;;;;;16.07;11.30;;;;;;;-2.84;100.00;97650.97;5081777;28;20492;-72
2023/01/23 07:24:49;;;;;;;15.27;9.47;;;;;;;-2.72;100.00;97688.16;5076100;28;20443;-72
2023/01/23 07:27:15;;;;;;;13.50;9.80;;;;;;;-2.74;100.00;97684.97;5077779;28;20435;-73
2023/01/23 07:29:42;;;;;;;16.10;11.00;;;;;;;-2.69;100.00;97694.69;5084656;28;20438;-73
2023/01/23 07:32:09;;;;;;;12.57;9.03;;;;;;;-2.49;100.00;97699.78;5083467;28;20513;-73
2023/01/23 07:34:37;;;;;;;16.10;10.23;;;;;;;-2.56;100.00;97678.28;5050503;28;20437;-73
2023/01/23 07:37:04;;;;;;;15.77;11.80;;;;;;;-2.51;100.00;97674.09;5069506;28;20883;-72
2023/01/23 07:39:34;;;;;;;14.20;11.47;;;;;;;-2.60;100.00;97674.53;5069744;28;20429;-73
2023/01/23 07:42:00;;;;;;;26.03;18.50;;;;;;;-2.50;100.00;97680.84;5084455;28;20859;-73
2023/01/23 07:44:27;;;;;;;20.83;15.93;;;;;;;-2.38;100.00;97712.84;5066501;28;20483;-73
2023/01/23 07:46:55;;;;;;;17.33;13.43;;;;;;;-2.76;100.00;97652.53;5061272;28;20440;-73
2023/01/23 07:49:21;;;;;;;18.63;14.63;;;;;;;-2.54;100.00;97700.38;5069606;28;20878;-73
2023/01/23 07:51:48;;;;;;;24.63;16.07;;;;;;;-2.83;100.00;97654.38;5085903;28;20846;-73
2023/01/23 07:54:15;;;;;;;22.60;16.17;;;;;;;-2.49;100.00;97697.19;5063155;28;21032;-73
2023/01/23 07:56:41;;;;;;;18.40;13.97;;;;;;;-2.72;100.00;97706.25;5071024;28;20466;-72
2023/01/23 07:59:10;;;;;;;12.80;9.80;;;;;;;-2.68;100.00;97691.91;5074647;28;20448;-72
2023/01/23 08:01:37;;;;;;;15.03;10.87;;;;;;;-2.90;100.00;97676.91;5091076;28;20415;-74
2023/01/23 08:04:03;;;;;;;19.97;12.50;;;;;;;-2.64;100.00;97689.72;5110427;28;20462;-74
2023/01/23 08:06:30;;;;;;;16.03;10.87;;;;;;;-2.61;100.00;97678.94;5107107;28;20515;-74
2023/01/23 08:08:57;;;;;;;19.87;10.60;;;;;;;-2.42;100.00;97698.72;5093115;28;20435;-73
2023/01/23 08:11:25;;;;;;;19.30;11.20;;;;;;;-2.36;100.00;97704.88;5084513;28;20459;-73
2023/01/23 08:13:52;;;;;;;16.77;11.43;;;;;;;-2.50;100.00;97685.25;5062842;28;20439;-73
2023/01/23 08:16:19;;;;;;;12.60;9.80;;;;;;;-2.48;100.00;97681.44;5088086;28;21144;-73
2023/01/23 08:18:45;;;;;;;17.27;10.97;;;;;;;-2.29;100.00;97708.19;5082761;28;20942;-73
2023/01/23 08:21:12;;;;;;;19.27;13.70;;;;;;;-2.45;100.00;97691.38;5064804;28;20523;-73
2023/01/23 08:23:40;;;;;;;21.60;14.23;;;;;;;-2.39;100.00;97687.16;5066261;28;20452;-73
2023/01/23 08:26:08;;;;;;;25.13;16.30;;;;;;;-2.31;100.00;97707.63;5062871;28;20454;-73
2023/01/23 08:28:35;;;;;;;24.67;16.23;;;;;;;-2.30;100.00;97674.75;5082977;28;20892;-73
2023/01/23 08:31:05;;;;;;;23.70;17.07;;;;;;;-2.26;100.00;97673.34;5088256;28;20424;-73
2023/01/23 08:33:33;;;;;;;19.37;14.87;;;;;;;-1.97;100.00;97698.59;5072820;28;20440;-73
2023/01/23 08:36:00;;;;;;;18.50;15.17;;;;;;;-1.77;100.00;97713.19;5086396;28;21049;-73
2023/01/23 08:38:27;;;;;;;22.67;15.40;;;;;;;-1.87;100.00;97685.97;5083849;28;20463;-73
2023/01/23 08:40:58;;;;;;;19.27;13.40;;;;;;;-1.48;100.00;97717.69;5062954;28;20471;-73
2023/01/23 08:43:25;;;;;;;13.93;11.40;;;;;;;-1.42;100.00;97703.88;5080966;28;20422;-73
2023/01/23 08:45:54;;;;;;;18.70;14.43;;;;;;;-1.35;100.00;97711.59;5078829;28;20984;-73
2023/01/23 08:48:23;;;;;;;18.43;14.83;;;;;;;-1.26;100.00;97715.50;5079238;28;20436;-73
2023/01/23 08:50:56;;;;;;;18.33;13.67;;;;;;;-1.01;100.00;97725.81;5079908;28;20550;-73
2023/01/23 08:53:23;;;;;;;19.00;13.90;;;;;;;-0.88;100.00;97730.84;5089663;28;20423;-73
2023/01/23 08:55:50;;;;;;;17.50;14.20;;;;;;;-0.82;100.00;97727.34;5060346;28;20544;-73
2023/01/23 08:58:16;;;;;;;18.40;13.93;;;;;;;-0.92;100.00;97701.16;5075308;28;20432;-73
2023/01/23 09:00:43;;;;;;;15.13;12.93;;;;;;;-1.22;100.00;97680.31;5067480;28;20543;-73
2023/01/23 09:03:09;;;;;;;21.87;15.97;;;;;;;-1.21;100.00;97694.88;5087308;28;20459;-73
2023/01/23 09:05:37;;;;;;;18.77;14.70;;;;;;;-1.17;100.00;97680.47;5071412;28;20501;-73
2023/01/23 09:08:04;;;;;;;22.40;14.33;;;;;;;-0.99;100.00;97718.59;5087187;28;20415;-73
2023/01/23 09:10:30;;;;;;;14.07;12.30;;;;;;;-1.00;100.00;97715.19;5064382;28;20961;-73
2023/01/23 09:12:57;;;;;;;20.07;13.60;;;;;;;-0.87;100.00;97698.69;5046574;28;20447;-73
2023/01/23 09:15:24;;;;;;;18.93;12.97;;;;;;;-0.62;100.00;97695.97;5081559;28;20851;-73
2023/01/23 09:17:50;;;;;;;15.87;12.43;;;;;;;-0.84;100.00;97693.03;5078064;28;20514;-73
2023/01/23 09:20:17;;;;;;;17.83;13.10;;;;;;;-0.77;100.00;97685.97;5083060;28;20527;-73
2023/01/23 09:22:44;;;;;;;17.53;11.43;;;;;;;-0.53;100.00;97722.44;5085534;28;20423;-73
2023/01/23 09:25:13;;;;;;;18.00;14.10;;;;;;;-0.50;100.00;97696.00;5082179;28;20522;-73
2023/01/23 09:27:39;;;;;;;13.00;10.40;;;;;;;-0.34;100.00;97706.56;5079662;28;20577;-73
2023/01/23 09:30:07;;;;;;;12.77;10.10;;;;;;;-0.45;100.00;97728.09;5061945;28;20445;-73
2023/01/23 09:32:33;;;;;;;10.47;8.23;;;;;;;-0.49;100.00;97724.34;5082471;28;20453;-73
2023/01/23 09:35:00;;;;;;;11.03;9.03;;;;;;;-0.26;100.00;97735.84;5062756;28;20929;-73
2023/01/23 09:37:58;;;;;;;13.43;7.80;;;;;;;-0.33;100.00;97741.13;5071252;28;20472;-72
2023/01/23 09:40:55;;;;;;;9.90;8.90;;;;;;;-0.36;100.00;97707.78;5083875;28;20556;-73
2023/01/23 09:43:23;;;;;;;11.77;8.33;;;;;;;-0.30;100.00;97738.88;5048191;28;20444;-73
2023/01/23 09:46:09;;;;;;;9.63;8.43;;;;;;;-0.28;100.00;97743.03;5077363;28;20467;-73
2023/01/23 09:48:46;;;;;;;12.03;9.03;;;;;;;-0.31;100.00;97739.09;5076011;28;20432;-73
2023/01/23 09:51:24;;;;;;;12.70;8.97;;;;;;;-0.39;100.00;97739.41;5076140;28;20439;-73
2023/01/23 09:53:57;;;;;;;10.67;8.53;;;;;;;-0.44;100.00;97732.25;5078087;28;20431;-73
2023/01/23 09:56:23;;;;;;;9.97;8.67;;;;;;;-0.36;100.00;97729.38;5058277;28;20465;-73
2023/01/23 09:59:07;;;;;;;12.03;8.30;;;;;;;-0.32;100.00;97708.91;5067690;28;20532;-73
2023/01/23 10:01:35;;;;;;;13.23;8.47;;;;;;;0.05;100.00;97726.97;5080878;28;20775;-73
2023/01/23 10:04:03;;;;;;;12.90;8.63;;;;;;;0.08;100.00;97722.13;5080100;28;20558;-73
2023/01/23 10:06:44;;;;;;;14.23;9.90;;;;;;;0.15;100.00;97717.63;5061701;28;20518;-73
2023/01/23 10:09:36;;;;;;;11.30;8.30;;;;;;;0.39;100.00;97713.19;5082076;28;20439;-73
2023/01/23 10:12:21;;;;;;;10.97;8.37;;;;;;;0.53;100.00;97717.16;5058848;28;20939;-73
2023/01/23 10:15:19;;;;;;;10.23;8.30;;;;;;;0.37;100.00;97706.63;5074816;28;20439;-73
2023/01/23 10:18:16;;;;;;;9.90;8.43;;;;;;;0.53;100.00;97703.34;5076680;28;20500;-73
2023/01/23 10:21:02;;;;;;;16.07;9.27;;;;;;;0.65;100.00;97703.34;5066068;28;20444;-73
2023/01/23 10:23:34;;;;;;;14.20;9.73;;;;;;;0.69;100.00;97707.09;5068591;28;20415;-73
2023/01/23 10:26:03;;;;;;;12.57;8.97;;;;;;;0.58;100.00;97706.09;5058688;28;20475;-73
2023/01/23 10:28:34;;;;;;;14.30;9.80;;;;;;;0.41;100.00;97705.97;5051951;28;20427;-73
2023/01/23 10:31:06;;;;;;;11.27;10.07;;;;;;;0.29;100.00;97703.38;5050753;28;20445;-73
2023/01/23 10:33:57;;;;;;;14.23;10.50;;;;;;;0.27;100.00;97696.81;5061618;28;20432;-73
2023/01/23 10:36:33;;;;;;;11.33;9.50;;;;;;;0.35;100.00;97662.66;5042214;28;20486;-73
2023/01/23 10:39:25;;;;;;;14.00;11.03;;;;;;;0.77;100.00;97707.50;5070742;28;20463;-73
2023/01/23 10:41:52;;;;;;;12.60;10.60;;;;;;;0.86;100.00;97698.34;5083126;28;20490;-73
2023/01/23 10:44:27;;;;;;;13.13;9.90;;;;;;;0.80;100.00;97694.06;5059575;28;20446;-73
2023/01/23 10:47:01;;;;;;;12.00;10.73;;;;;;;0.73;100.00;97682.19;5070439;28;20440;-73
2023/01/23 10:49:31;;;;;;;13.47;10.23;;;;;;;0.67;100.00;97693.50;5053657;28;20436;-73
2023/01/23 10:51:57;;;;;;;13.83;9.80;;;;;;;0.52;100.00;97667.94;5078109;28;20955;-73
2023/01/23 10:54:27;;;;;;;11.60;8.90;;;;;;;0.70;100.00;97699.06;5071532;28;20427;-73
2023/01/23 10:57:08;;;;;;;12.67;8.40;;;;;;;0.66;100.00;97697.91;5054101;28;20490;-73
2023/01/23 10:59:41;;;;;;;11.27;7.93;;;;;;;0.57;100.00;97674.06;5082375;28;20411;-73
2023/01/23 11:02:14;;;;;;;8.40;7.60;;;;;;;0.72;100.00;97697.00;5050496;28;20429;-73
2023/01/23 11:04:44;;;;;;;12.50;8.60;;;;;;;0.57;100.00;97650.66;5050136;28;20421;-73
2023/01/23 11:07:16;;;;;;;8.90;7.70;;;;;;;0.86;100.00;97694.94;5057491;28;20452;-73
2023/01/23 11:09:50;;;;;;;15.67;8.30;;;;;;;0.66;100.00;97660.69;5081590;28;20782;-73
2023/01/23 11:12:24;;;;;;;12.13;7.90;;;;;;;0.95;100.00;97684.97;5050077;28;20536;-73
2023/01/23 11:15:10;;;;;;;11.13;7.53;;;;;;;0.90;100.00;97683.03;5085926;28;20410;-73
2023/01/23 11:17:38;;;;;;;7.80;6.07;;;;;;;1.00;100.00;97691.06;5076460;28;20472;-73
2023/01/23 11:20:23;;;;;;;8.60;6.60;;;;;;;0.77;100.00;97641.66;5071287;28;20493;-73
2023/01/23 11:23:02;;;;;;;7.80;6.03;;;;;;;1.09;100.00;97679.28;5081050;28;20429;-73
2023/01/23 11:25:39;;;;;;;7.63;6.87;;;;;;;1.10;100.00;97691.25;5062372;28;20448;-73
2023/01/23 11:28:53;;;;;;;5.40;4.90;;;;;;;1.05;100.00;97682.56;5069473;28;20462;-73
2023/01/23 11:31:21;;;;;;;8.03;6.30;;;;;;;1.08;100.00;97688.09;5013627;28;20572;-73
2023/01/23 11:33:56;;;;;;;10.07;7.13;;;;;;;1.12;100.00;97683.22;5049870;28;20445;-73
2023/01/23 11:36:48;;;;;;;6.60;5.97;;;;;;;1.12;100.00;97678.81;5056434;28;20492;-72
2023/01/23 11:39:46;;;;;;;11.67;7.60;;;;;;;1.07;100.00;97680.50;5069179;28;20474;-73